sensor_id;sensor_type;location;lat;lon;timestamp;pressure;altitude;pressure_sealevel;temperature;humidity
54503;BME280;40411;50.090;21.954;2023-06-14T00:02:06;-19473.72;;;12.45;100.00
54503;BME280;40411;50.090;21.954;2023-06-14T00:04:35;-19477.69;;;12.53;100.00
54503;BME280;40411;50.090;21.954;2023-06-14T00:07:01;-19472.69;;;12.41;100.00
54503;BME280;40411;50.090;21.954;2023-06-14T00:09:27;-19473.72;;;12.45;100.00
54503;BME280;40411;50.090;21.954;2023-06-14T00:11:53;-19477.19;;;12.51;100.00
54503;BME280;40411;50.090;21.954;2023-06-14T00:14:19;-19474.22;;;12.47;100.00
54503;BME280;40411;50.090;21.954;2023-06-14T00:16:45;-19474.50;;;12.48;100.00
54503;BME280;40411;50.090;21.954;2023-06-14T00:19:11;-19478.19;;;12.56;100.00
54503;BME280;40411;50.090;21.954;2023-06-14T00:21:37;-19473.72;;;12.45;100.00
54503;BME280;40411;50.090;21.954;2023-06-14T00:24:04;-19477.81;;;12.54;100.00
54503;BME280;40411;50.090;21.954;2023-06-14T00:26:30;-19478.72;;;12.58;100.00
54503;BME280;40411;50.090;21.954;2023-06-14T00:28:56;-19474.88;;;12.50;100.00
54503;BME280;40411;50.090;21.954;2023-06-14T00:31:22;-19474.22;;;12.47;100.00
54503;BME280;40411;50.090;21.954;2023-06-14T00:33:49;-19477.81;;;12.54;100.00
54503;BME280;40411;50.090;21.954;2023-06-14T00:36:14;-19473.72;;;12.45;100.00
54503;BME280;40411;50.090;21.954;2023-06-14T00:38:42;-19473.09;;;12.43;100.00
54503;BME280;40411;50.090;21.954;2023-06-14T00:41:08;-19474.09;;;12.47;100.00
54503;BME280;40411;50.090;21.954;2023-06-14T00:43:34;-19471.41;;;12.36;100.00
54503;BME280;40411;50.090;21.954;2023-06-14T00:46:00;-19471.03;;;12.35;100.00
54503;BME280;40411;50.090;21.954;2023-06-14T00:48:28;-19471.41;;;12.36;100.00
54503;BME280;40411;50.090;21.954;2023-06-14T00:50:54;-19470.66;;;12.33;100.00
54503;BME280;40411;50.090;21.954;2023-06-14T00:53:21;-19468.75;;;12.25;100.00
54503;BME280;40411;50.090;21.954;2023-06-14T00:55:48;-19472.19;;;12.39;100.00
54503;BME280;40411;50.090;21.954;2023-06-14T00:58:16;-19471.28;;;12.36;100.00
54503;BME280;40411;50.090;21.954;2023-06-14T01:00:42;-19470.16;;;12.31;100.00
54503;BME280;40411;50.090;21.954;2023-06-14T01:03:08;-19469.63;;;12.29;100.00
54503;BME280;40411;50.090;21.954;2023-06-14T01:05:38;-19470.78;;;12.34;100.00
54503;BME280;40411;50.090;21.954;2023-06-14T01:08:14;-19469.88;;;12.30;100.00
54503;BME280;40411;50.090;21.954;2023-06-14T01:15:55;-19469.63;;;12.29;100.00
54503;BME280;40411;50.090;21.954;2023-06-14T01:18:22;-19469.38;;;12.28;100.00
54503;BME280;40411;50.090;21.954;2023-06-14T01:20:50;-19469.38;;;12.28;100.00
54503;BME280;40411;50.090;21.954;2023-06-14T01:23:17;-19469.25;;;12.27;100.00
54503;BME280;40411;50.090;21.954;2023-06-14T01:25:43;-19468.63;;;12.25;100.00
54503;BME280;40411;50.090;21.954;2023-06-14T01:28:11;-19470.16;;;12.31;100.00
54503;BME280;40411;50.090;21.954;2023-06-14T01:30:42;-19470.03;;;12.30;100.00
54503;BME280;40411;50.090;21.954;2023-06-14T01:33:19;-19470.41;;;12.32;100.00
54503;BME280;40411;50.090;21.954;2023-06-14T01:35:47;-19469.88;;;12.30;100.00
54503;BME280;40411;50.090;21.954;2023-06-14T01:38:14;-19469.88;;;12.30;100.00
54503;BME280;40411;50.090;21.954;2023-06-14T01:40:42;-19469.13;;;12.27;100.00
54503;BME280;40411;50.090;21.954;2023-06-14T01:43:10;-19468.63;;;12.25;100.00
54503;BME280;40411;50.090;21.954;2023-06-14T01:45:37;-19473.97;;;12.39;100.00
54503;BME280;40411;50.090;21.954;2023-06-14T01:48:04;-19469.88;;;12.30;100.00
54503;BME280;40411;50.090;21.954;2023-06-14T01:50:31;-19471.03;;;12.35;100.00
54503;BME280;40411;50.090;21.954;2023-06-14T01:52:57;-19472.31;;;12.40;100.00
54503;BME280;40411;50.090;21.954;2023-06-14T01:55:23;-19470.91;;;12.34;100.00
54503;BME280;40411;50.090;21.954;2023-06-14T01:57:53;-19471.03;;;12.35;100.00
54503;BME280;40411;50.090;21.954;2023-06-14T02:00:20;-19470.41;;;12.32;100.00
54503;BME280;40411;50.090;21.954;2023-06-14T02:02:48;-19476.53;;;12.49;100.00
54503;BME280;40411;50.090;21.954;2023-06-14T02:05:14;-19478.31;;;12.56;100.00
54503;BME280;40411;50.090;21.954;2023-06-14T02:07:45;-19474.75;;;12.49;100.00
54503;BME280;40411;50.090;21.954;2023-06-14T02:10:14;-19470.41;;;12.32;100.00
54503;BME280;40411;50.090;21.954;2023-06-14T02:12:41;-19471.69;;;12.37;100.00
54503;BME280;40411;50.090;21.954;2023-06-14T02:15:07;-19468.88;;;12.26;100.00
54503;BME280;40411;50.090;21.954;2023-06-14T02:17:33;-19467.59;;;12.21;100.00
54503;BME280;40411;50.090;21.954;2023-06-14T02:20:04;-19468.63;;;12.25;100.00
54503;BME280;40411;50.090;21.954;2023-06-14T02:22:31;-19466.84;;;12.18;100.00
54503;BME280;40411;50.090;21.954;2023-06-14T02:24:57;-19468.38;;;12.24;100.00
54503;BME280;40411;50.090;21.954;2023-06-14T02:27:23;-19468.22;;;12.23;100.00
54503;BME280;40411;50.090;21.954;2023-06-14T02:29:49;-19469.13;;;12.27;100.00
54503;BME280;40411;50.090;21.954;2023-06-14T02:32:15;-19469.63;;;12.29;100.00
54503;BME280;40411;50.090;21.954;2023-06-14T02:34:41;-19470.16;;;12.31;100.00
54503;BME280;40411;50.090;21.954;2023-06-14T02:37:07;-19469.50;;;12.28;100.00
54503;BME280;40411;50.090;21.954;2023-06-14T02:39:32;-19470.91;;;12.34;100.00
54503;BME280;40411;50.090;21.954;2023-06-14T02:41:58;-19470.28;;;12.32;100.00
54503;BME280;40411;50.090;21.954;2023-06-14T02:44:26;-19476.78;;;12.50;100.00
54503;BME280;40411;50.090;21.954;2023-06-14T02:46:54;-19478.84;;;12.58;100.00
54503;BME280;40411;50.090;21.954;2023-06-14T02:49:21;-19478.97;;;12.59;100.00
54503;BME280;40411;50.090;21.954;2023-06-14T02:51:47;-19477.69;;;12.53;100.00
54503;BME280;40411;50.090;21.954;2023-06-14T02:54:13;-19477.69;;;12.53;100.00
54503;BME280;40411;50.090;21.954;2023-06-14T02:56:39;-19479.97;;;12.63;100.00
54503;BME280;40411;50.090;21.954;2023-06-14T02:59:07;-19480.38;;;12.64;100.00
54503;BME280;40411;50.090;21.954;2023-06-14T03:01:35;-19479.22;;;12.60;100.00
54503;BME280;40411;50.090;21.954;2023-06-14T03:04:07;-19479.09;;;12.59;100.00
54503;BME280;40411;50.090;21.954;2023-06-14T03:06:35;-19476.78;;;12.50;100.00
54503;BME280;40411;50.090;21.954;2023-06-14T03:09:03;-19475.50;;;12.45;100.00
54503;BME280;40411;50.090;21.954;2023-06-14T03:11:35;-19477.94;;;12.55;100.00
54503;BME280;40411;50.090;21.954;2023-06-14T03:14:01;-19479.97;;;12.63;100.00
54503;BME280;40411;50.090;21.954;2023-06-14T03:16:30;-19480.22;;;12.64;100.00
54503;BME280;40411;50.090;21.954;2023-06-14T03:18:57;-19483.16;;;12.75;100.00
54503;BME280;40411;50.090;21.954;2023-06-14T03:21:26;-19476.91;;;12.50;100.00
54503;BME280;40411;50.090;21.954;2023-06-14T03:23:55;-19479.09;;;12.59;100.00
54503;BME280;40411;50.090;21.954;2023-06-14T03:26:21;-19482.53;;;12.73;100.00
54503;BME280;40411;50.090;21.954;2023-06-14T03:28:50;-19484.31;;;12.80;100.00
54503;BME280;40411;50.090;21.954;2023-06-14T03:31:18;-19483.81;;;12.78;100.00
54503;BME280;40411;50.090;21.954;2023-06-14T03:33:44;-19482.53;;;12.73;100.00
54503;BME280;40411;50.090;21.954;2023-06-14T03:36:11;-19481.75;;;12.70;100.00
54503;BME280;40411;50.090;21.954;2023-06-14T03:38:36;-19484.81;;;12.82;100.00
54503;BME280;40411;50.090;21.954;2023-06-14T03:41:04;-19482.16;;;12.71;100.00
54503;BME280;40411;50.090;21.954;2023-06-14T03:43:31;-19485.97;;;12.87;100.00
54503;BME280;40411;50.090;21.954;2023-06-14T03:45:57;-19484.97;;;12.83;100.00
54503;BME280;40411;50.090;21.954;2023-06-14T03:48:24;-19485.22;;;12.84;100.00
54503;BME280;40411;50.090;21.954;2023-06-14T03:50:51;-19483.69;;;12.78;100.00
54503;BME280;40411;50.090;21.954;2023-06-14T03:53:17;-19486.34;;;12.88;100.00
54503;BME280;40411;50.090;21.954;2023-06-14T03:55:49;-19484.44;;;12.81;100.00
54503;BME280;40411;50.090;21.954;2023-06-14T03:58:18;-19484.31;;;12.80;100.00
54503;BME280;40411;50.090;21.954;2023-06-14T04:00:45;-19485.34;;;12.84;100.00
54503;BME280;40411;50.090;21.954;2023-06-14T04:03:11;-19485.09;;;12.83;100.00
54503;BME280;40411;50.090;21.954;2023-06-14T04:05:39;-19488.91;;;12.99;100.00
54503;BME280;40411;50.090;21.954;2023-06-14T04:08:08;-19489.69;;;13.02;100.00
54503;BME280;40411;50.090;21.954;2023-06-14T04:10:35;-19486.88;;;12.90;100.00
54503;BME280;40411;50.090;21.954;2023-06-14T04:13:01;-19489.53;;;13.01;100.00
54503;BME280;40411;50.090;21.954;2023-06-14T04:15:27;-19495.28;;;13.24;100.00
54503;BME280;40411;50.090;21.954;2023-06-14T04:17:57;-19497.31;;;13.32;100.00
54503;BME280;40411;50.090;21.954;2023-06-14T04:20:24;-19497.72;;;13.34;100.00
54503;BME280;40411;50.090;21.954;2023-06-14T04:22:51;-19498.72;;;13.38;100.00
54503;BME280;40411;50.090;21.954;2023-06-14T04:25:18;-19499.38;;;13.40;100.00
54503;BME280;40411;50.090;21.954;2023-06-14T04:27:45;-19502.81;;;13.54;100.00
54503;BME280;40411;50.090;21.954;2023-06-14T04:30:13;-19503.56;;;13.57;100.00
54503;BME280;40411;50.090;21.954;2023-06-14T04:32:47;-19512.50;;;13.93;100.00
54503;BME280;40411;50.090;21.954;2023-06-14T04:35:13;-19511.47;;;13.89;100.00
54503;BME280;40411;50.090;21.954;2023-06-14T04:37:42;-19512.63;;;13.94;100.00
54503;BME280;40411;50.090;21.954;2023-06-14T04:40:10;-19510.56;;;13.85;100.00
54503;BME280;40411;50.090;21.954;2023-06-14T04:42:37;-19511.59;;;13.90;100.00
54503;BME280;40411;50.090;21.954;2023-06-14T04:45:07;-19508.91;;;13.79;100.00
54503;BME280;40411;50.090;21.954;2023-06-14T04:47:33;-19513.00;;;13.95;100.00
54503;BME280;40411;50.090;21.954;2023-06-14T04:50:00;-19520.25;;;14.24;100.00
54503;BME280;40411;50.090;21.954;2023-06-14T04:52:29;-19515.41;;;14.05;100.00
54503;BME280;40411;50.090;21.954;2023-06-14T04:54:56;-19521.13;;;14.28;100.00
54503;BME280;40411;50.090;21.954;2023-06-14T04:57:22;-19516.19;;;14.08;100.00
54503;BME280;40411;50.090;21.954;2023-06-14T04:59:52;-19519.75;;;14.22;100.00
54503;BME280;40411;50.090;21.954;2023-06-14T05:02:25;-19524.84;;;14.43;100.00
54503;BME280;40411;50.090;21.954;2023-06-14T05:04:53;-19519.75;;;14.22;100.00
54503;BME280;40411;50.090;21.954;2023-06-14T05:07:19;-19522.16;;;14.32;100.00
54503;BME280;40411;50.090;21.954;2023-06-14T05:09:46;-19512.88;;;13.95;100.00
54503;BME280;40411;50.090;21.954;2023-06-14T05:12:12;-19512.09;;;13.92;100.00
54503;BME280;40411;50.090;21.954;2023-06-14T05:14:38;-19519.22;;;14.20;100.00
54503;BME280;40411;50.090;21.954;2023-06-14T05:17:06;-19515.94;;;14.07;100.00
54503;BME280;40411;50.090;21.954;2023-06-14T05:19:32;-19522.03;;;14.31;100.00
54503;BME280;40411;50.090;21.954;2023-06-14T05:21:58;-19516.44;;;14.09;100.00
54503;BME280;40411;50.090;21.954;2023-06-14T05:24:24;-19524.06;;;14.40;100.00
54503;BME280;40411;50.090;21.954;2023-06-14T05:26:50;-19524.06;;;14.40;100.00
54503;BME280;40411;50.090;21.954;2023-06-14T05:29:16;-19525.84;;;14.47;100.00
54503;BME280;40411;50.090;21.954;2023-06-14T05:31:42;-19532.72;;;14.74;100.00
54503;BME280;40411;50.090;21.954;2023-06-14T05:34:08;-19529.16;;;14.60;100.00
54503;BME280;40411;50.090;21.954;2023-06-14T05:36:34;-19529.16;;;14.60;100.00
54503;BME280;40411;50.090;21.954;2023-06-14T05:38:59;-19530.31;;;14.65;100.00
54503;BME280;40411;50.090;21.954;2023-06-14T05:41:27;-19527.13;;;14.52;100.00
54503;BME280;40411;50.090;21.954;2023-06-14T05:43:54;-19517.44;;;14.13;100.00
54503;BME280;40411;50.090;21.954;2023-06-14T05:46:20;-19522.28;;;14.33;100.00
54503;BME280;40411;50.090;21.954;2023-06-14T05:48:51;-19520.50;;;14.25;100.00
54503;BME280;40411;50.090;21.954;2023-06-14T05:51:16;-19511.22;;;13.88;100.00
54503;BME280;40411;50.090;21.954;2023-06-14T05:53:45;-19513.38;;;13.97;100.00
54503;BME280;40411;50.090;21.954;2023-06-14T05:56:12;-19516.69;;;14.10;100.00
54503;BME280;40411;50.090;21.954;2023-06-14T05:58:38;-19519.38;;;14.21;100.00
54503;BME280;40411;50.090;21.954;2023-06-14T06:01:03;-19519.22;;;14.20;100.00
54503;BME280;40411;50.090;21.954;2023-06-14T06:03:29;-19521.28;;;14.28;100.00
54503;BME280;40411;50.090;21.954;2023-06-14T06:05:55;-19520.88;;;14.27;100.00
54503;BME280;40411;50.090;21.954;2023-06-14T06:08:21;-19527.38;;;14.53;100.00
54503;BME280;40411;50.090;21.954;2023-06-14T06:10:47;-19528.16;;;14.56;100.00
54503;BME280;40411;50.090;21.954;2023-06-14T06:13:13;-19528.78;;;14.59;100.00
54503;BME280;40411;50.090;21.954;2023-06-14T06:15:38;-19517.31;;;14.13;100.00
54503;BME280;40411;50.090;21.954;2023-06-14T06:18:04;-19524.56;;;14.42;100.00
54503;BME280;40411;50.090;21.954;2023-06-14T06:20:30;-19526.63;;;14.50;100.00
54503;BME280;40411;50.090;21.954;2023-06-14T06:22:58;-19532.97;;;14.75;100.00
54503;BME280;40411;50.090;21.954;2023-06-14T06:25:25;-19533.63;;;14.78;100.00
54503;BME280;40411;50.090;21.954;2023-06-14T06:27:52;-19528.66;;;14.58;100.00
54503;BME280;40411;50.090;21.954;2023-06-14T06:30:19;-19531.44;;;14.69;100.00
54503;BME280;40411;50.090;21.954;2023-06-14T06:32:46;-19528.66;;;14.58;100.00
54503;BME280;40411;50.090;21.954;2023-06-14T06:35:13;-19536.03;;;14.88;100.00
54503;BME280;40411;50.090;21.954;2023-06-14T06:37:41;-19535.78;;;14.87;100.00
54503;BME280;40411;50.090;21.954;2023-06-14T06:40:07;-19542.50;;;15.14;100.00
54503;BME280;40411;50.090;21.954;2023-06-14T06:42:34;-19543.41;;;15.17;100.00
54503;BME280;40411;50.090;21.954;2023-06-14T06:45:03;-19559.53;;;15.82;100.00
54503;BME280;40411;50.090;21.954;2023-06-14T06:47:29;-19554.59;;;15.62;100.00
54503;BME280;40411;50.090;21.954;2023-06-14T06:49:55;-19556.88;;;15.72;100.00
54503;BME280;40411;50.090;21.954;2023-06-14T06:52:21;-19550.78;;;15.47;100.00
54503;BME280;40411;50.090;21.954;2023-06-14T06:54:47;-19554.22;;;15.61;100.00
54503;BME280;40411;50.090;21.954;2023-06-14T06:57:13;-19554.72;;;15.63;100.00
54503;BME280;40411;50.090;21.954;2023-06-14T06:59:39;-19563.72;;;15.99;100.00
54503;BME280;40411;50.090;21.954;2023-06-14T07:02:06;-19561.69;;;15.91;100.00
54503;BME280;40411;50.090;21.954;2023-06-14T07:04:31;-19559.03;;;15.80;100.00
54503;BME280;40411;50.090;21.954;2023-06-14T07:06:58;-19554.34;;;15.61;100.00
54503;BME280;40411;50.090;21.954;2023-06-14T07:09:24;-19562.59;;;15.95;100.00
54503;BME280;40411;50.090;21.954;2023-06-14T07:11:50;-19557.63;;;15.75;100.00
54503;BME280;40411;50.090;21.954;2023-06-14T07:14:16;-19556.63;;;15.71;100.00
54503;BME280;40411;50.090;21.954;2023-06-14T07:16:42;-19557.63;;;15.75;100.00
54503;BME280;40411;50.090;21.954;2023-06-14T07:19:08;-19555.59;;;15.67;100.00
54503;BME280;40411;50.090;21.954;2023-06-14T07:21:35;-19551.78;;;15.51;100.00
54503;BME280;40411;50.090;21.954;2023-06-14T07:24:07;-19556.38;;;15.70;100.00
54503;BME280;40411;50.090;21.954;2023-06-14T07:26:34;-19551.53;;;15.50;100.00
54503;BME280;40411;50.090;21.954;2023-06-14T07:29:01;-19564.75;;;16.03;100.00
54503;BME280;40411;50.090;21.954;2023-06-14T07:31:28;-19567.66;;;16.15;100.00
54503;BME280;40411;50.090;21.954;2023-06-14T07:33:54;-19557.88;;;15.76;100.00
54503;BME280;40411;50.090;21.954;2023-06-14T07:36:20;-19555.09;;;15.64;100.00
54503;BME280;40411;50.090;21.954;2023-06-14T07:38:46;-19556.38;;;15.70;100.00
54503;BME280;40411;50.090;21.954;2023-06-14T07:41:12;-19551.03;;;15.48;100.00
54503;BME280;40411;50.090;21.954;2023-06-14T07:43:37;-19552.81;;;15.55;100.00
54503;BME280;40411;50.090;21.954;2023-06-14T07:46:04;-19557.00;;;15.72;100.00
54503;BME280;40411;50.090;21.954;2023-06-14T07:48:29;-19558.28;;;15.77;100.00
54503;BME280;40411;50.090;21.954;2023-06-14T07:50:55;-19562.47;;;15.94;100.00
54503;BME280;40411;50.090;21.954;2023-06-14T07:53:21;-19555.34;;;15.65;100.00
54503;BME280;40411;50.090;21.954;2023-06-14T07:55:47;-19552.44;;;15.54;100.00
54503;BME280;40411;50.090;21.954;2023-06-14T07:58:14;-19549.25;;;15.41;100.00
54503;BME280;40411;50.090;21.954;2023-06-14T08:00:40;-19549.25;;;15.41;100.00
54503;BME280;40411;50.090;21.954;2023-06-14T08:03:06;-19545.94;;;15.28;100.00
54503;BME280;40411;50.090;21.954;2023-06-14T08:05:32;-19556.63;;;15.71;100.00
54503;BME280;40411;50.090;21.954;2023-06-14T08:07:58;-19564.13;;;16.01;100.00
54503;BME280;40411;50.090;21.954;2023-06-14T08:10:24;-19571.09;;;16.29;100.00
54503;BME280;40411;50.090;21.954;2023-06-14T08:12:49;-19565.00;;;16.04;100.00
54503;BME280;40411;50.090;21.954;2023-06-14T08:15:16;-19566.28;;;16.09;100.00
54503;BME280;40411;50.090;21.954;2023-06-14T08:17:43;-19576.44;;;16.50;100.00
54503;BME280;40411;50.090;21.954;2023-06-14T08:20:09;-19582.00;;;16.73;100.00
54503;BME280;40411;50.090;21.954;2023-06-14T08:22:36;-19572.75;;;16.36;100.00
54503;BME280;40411;50.090;21.954;2023-06-14T08:25:03;-19570.84;;;16.28;100.00
54503;BME280;40411;50.090;21.954;2023-06-14T08:27:30;-19558.41;;;15.78;100.00
54503;BME280;40411;50.090;21.954;2023-06-14T08:29:56;-19554.59;;;15.62;100.00
54503;BME280;40411;50.090;21.954;2023-06-14T08:32:22;-19561.31;;;15.90;100.00
54503;BME280;40411;50.090;21.954;2023-06-14T08:34:48;-19565.91;;;16.08;100.00
54503;BME280;40411;50.090;21.954;2023-06-14T08:37:14;-19561.44;;;15.90;100.00
54503;BME280;40411;50.090;21.954;2023-06-14T08:39:40;-19551.41;;;15.50;100.00
54503;BME280;40411;50.090;21.954;2023-06-14T08:42:07;-19554.97;;;15.64;100.00
54503;BME280;40411;50.090;21.954;2023-06-14T08:44:34;-19551.16;;;15.49;100.00
54503;BME280;40411;50.090;21.954;2023-06-14T08:47:00;-19554.84;;;15.63;100.00
54503;BME280;40411;50.090;21.954;2023-06-14T08:49:26;-19557.88;;;15.76;100.00
54503;BME280;40411;50.090;21.954;2023-06-14T08:51:57;-19559.16;;;15.81;100.00
54503;BME280;40411;50.090;21.954;2023-06-14T08:54:27;-19561.19;;;15.89;100.00
54503;BME280;40411;50.090;21.954;2023-06-14T08:56:56;-19556.63;;;15.71;100.00
54503;BME280;40411;50.090;21.954;2023-06-14T08:59:28;-19554.59;;;15.62;100.00
54503;BME280;40411;50.090;21.954;2023-06-14T09:01:54;-19554.06;;;15.60;100.00
54503;BME280;40411;50.090;21.954;2023-06-14T09:04:21;-19552.69;;;15.55;100.00
54503;BME280;40411;50.090;21.954;2023-06-14T09:06:56;-19549.13;;;15.40;100.00
54503;BME280;40411;50.090;21.954;2023-06-14T09:09:22;-19558.03;;;15.76;100.00
54503;BME280;40411;50.090;21.954;2023-06-14T09:11:52;-19550.91;;;15.48;100.00
54503;BME280;40411;50.090;21.954;2023-06-14T09:14:18;-19553.94;;;15.60;100.00
54503;BME280;40411;50.090;21.954;2023-06-14T09:16:44;-19558.66;;;15.79;100.00
54503;BME280;40411;50.090;21.954;2023-06-14T09:19:21;-19561.69;;;15.91;100.00
54503;BME280;40411;50.090;21.954;2023-06-14T09:21:48;-19559.66;;;15.83;100.00
54503;BME280;40411;50.090;21.954;2023-06-14T09:24:15;-19562.22;;;15.93;100.00
54503;BME280;40411;50.090;21.954;2023-06-14T09:26:41;-19556.75;;;15.71;100.00
54503;BME280;40411;50.090;21.954;2023-06-14T09:29:07;-19571.09;;;16.29;100.00
54503;BME280;40411;50.090;21.954;2023-06-14T09:31:35;-19578.97;;;16.61;100.00
54503;BME280;40411;50.090;21.954;2023-06-14T09:34:02;-19590.38;;;17.07;100.00
54503;BME280;40411;50.090;21.954;2023-06-14T09:36:31;-19587.22;;;16.94;100.00
54503;BME280;40411;50.090;21.954;2023-06-14T09:39:02;-19606.09;;;17.70;100.00
54503;BME280;40411;50.090;21.954;2023-06-14T09:41:35;-19620.53;;;18.28;100.00
54503;BME280;40411;50.090;21.954;2023-06-14T09:44:03;-19617.72;;;18.17;100.00
54503;BME280;40411;50.090;21.954;2023-06-14T09:46:30;-19623.81;;;18.42;100.00
54503;BME280;40411;50.090;21.954;2023-06-14T09:49:00;-19641.75;;;19.14;100.00
54503;BME280;40411;50.090;21.954;2023-06-14T09:51:27;-19642.25;;;19.16;100.00
54503;BME280;40411;50.090;21.954;2023-06-14T09:53:58;-19615.72;;;18.09;100.00
54503;BME280;40411;50.090;21.954;2023-06-14T09:56:28;-19607.34;;;17.75;100.00
54503;BME280;40411;50.090;21.954;2023-06-14T09:58:57;-19600.13;;;17.46;100.00
54503;BME280;40411;50.090;21.954;2023-06-14T10:01:24;-19594.69;;;17.24;100.00
54503;BME280;40411;50.090;21.954;2023-06-14T10:04:02;-19591.13;;;17.10;100.00
54503;BME280;40411;50.090;21.954;2023-06-14T10:06:29;-19590.00;;;17.05;100.00
54503;BME280;40411;50.090;21.954;2023-06-14T10:08:59;-19581.25;;;16.70;100.00
54503;BME280;40411;50.090;21.954;2023-06-14T10:11:27;-19578.72;;;16.60;100.00
54503;BME280;40411;50.090;21.954;2023-06-14T10:13:54;-19587.06;;;16.93;100.00
54503;BME280;40411;50.090;21.954;2023-06-14T10:17:04;-19606.84;;;17.73;100.00
54503;BME280;40411;50.090;21.954;2023-06-14T10:19:48;-19629.13;;;18.63;100.00
54503;BME280;40411;50.090;21.954;2023-06-14T10:22:21;-19630.88;;;18.70;100.00
54503;BME280;40411;50.090;21.954;2023-06-14T10:24:50;-19625.84;;;18.50;100.00
54503;BME280;40411;50.090;21.954;2023-06-14T10:27:17;-19627.97;;;18.59;100.00
54503;BME280;40411;50.090;21.954;2023-06-14T10:32:20;-19615.72;;;18.09;100.00
54503;BME280;40411;50.090;21.954;2023-06-14T10:34:53;-19613.31;;;17.99;100.00
54503;BME280;40411;50.090;21.954;2023-06-14T10:37:19;-19630.63;;;18.69;100.00
54503;BME280;40411;50.090;21.954;2023-06-14T10:39:46;-19642.13;;;19.16;100.00
54503;BME280;40411;50.090;21.954;2023-06-14T10:42:12;-19619.50;;;18.24;100.00
54503;BME280;40411;50.090;21.954;2023-06-14T10:44:39;-19612.41;;;17.96;100.00
54503;BME280;40411;50.090;21.954;2023-06-14T10:49:50;-19629.75;;;18.66;100.00
54503;BME280;40411;50.090;21.954;2023-06-14T10:52:20;-19628.34;;;18.60;100.00
54503;BME280;40411;50.090;21.954;2023-06-14T10:54:58;-19624.56;;;18.45;100.00
54503;BME280;40411;50.090;21.954;2023-06-14T10:57:24;-19625.56;;;18.49;100.00
54503;BME280;40411;50.090;21.954;2023-06-14T10:59:51;-19633.28;;;18.80;100.00
54503;BME280;40411;50.090;21.954;2023-06-14T11:02:27;-19625.69;;;18.49;100.00
54503;BME280;40411;50.090;21.954;2023-06-14T11:05:08;-19640.50;;;19.09;100.00
54503;BME280;40411;50.090;21.954;2023-06-14T11:12:59;-19619.75;;;18.25;100.00
54503;BME280;40411;50.090;21.954;2023-06-14T11:15:31;-19609.75;;;17.85;100.00
54503;BME280;40411;50.090;21.954;2023-06-14T11:18:00;-19608.88;;;17.81;100.00
54503;BME280;40411;50.090;21.954;2023-06-14T11:20:29;-19616.97;;;18.14;100.00
54503;BME280;40411;50.090;21.954;2023-06-14T11:22:55;-19622.28;;;18.36;100.00
54503;BME280;40411;50.090;21.954;2023-06-14T11:25:21;-19647.44;;;19.37;100.00
54503;BME280;40411;50.090;21.954;2023-06-14T11:27:50;-19673.81;;;20.44;100.00
54503;BME280;40411;50.090;21.954;2023-06-14T11:30:17;-19680.63;;;20.72;100.00
54503;BME280;40411;50.090;21.954;2023-06-14T11:32:51;-19685.94;;;20.93;100.00
54503;BME280;40411;50.090;21.954;2023-06-14T11:35:18;-19685.53;;;20.92;97.85
54503;BME280;40411;50.090;21.954;2023-06-14T11:37:44;-19702.81;;;21.62;98.32
54503;BME280;40411;50.090;21.954;2023-06-14T11:40:11;-19687.81;;;21.01;97.04
54503;BME280;40411;50.090;21.954;2023-06-14T11:42:41;-19682.41;;;20.79;98.21
54503;BME280;40411;50.090;21.954;2023-06-14T11:45:08;-19663.22;;;20.01;98.29
54503;BME280;40411;50.090;21.954;2023-06-14T11:47:35;-19680.88;;;20.73;98.37
54503;BME280;40411;50.090;21.954;2023-06-14T11:50:02;-19686.44;;;20.95;90.56
54503;BME280;40411;50.090;21.954;2023-06-14T11:52:29;-19675.84;;;20.52;91.41
54503;BME280;40411;50.090;21.954;2023-06-14T11:54:55;-19692.72;;;21.21;93.12
54503;BME280;40411;50.090;21.954;2023-06-14T11:57:22;-19696.75;;;21.37;89.64
54503;BME280;40411;50.090;21.954;2023-06-14T11:59:49;-19676.22;;;20.54;96.65
54503;BME280;40411;50.090;21.954;2023-06-14T12:02:16;-19684.16;;;20.86;97.17
54503;BME280;40411;50.090;21.954;2023-06-14T12:04:49;-19688.19;;;21.03;94.99
54503;BME280;40411;50.090;21.954;2023-06-14T12:07:16;-19661.72;;;19.95;99.05
54503;BME280;40411;50.090;21.954;2023-06-14T12:12:22;-19667.28;;;20.18;100.00
54503;BME280;40411;50.090;21.954;2023-06-14T12:14:49;-19672.19;;;20.38;100.00
54503;BME280;40411;50.090;21.954;2023-06-14T12:17:16;-19679.13;;;20.66;98.56
54503;BME280;40411;50.090;21.954;2023-06-14T12:19:45;-19665.50;;;20.11;98.77
54503;BME280;40411;50.090;21.954;2023-06-14T12:22:14;-19658.94;;;19.84;100.00
54503;BME280;40411;50.090;21.954;2023-06-14T12:24:44;-19668.03;;;20.21;100.00
54503;BME280;40411;50.090;21.954;2023-06-14T12:27:10;-19663.59;;;20.03;100.00
54503;BME280;40411;50.090;21.954;2023-06-14T12:29:42;-19659.06;;;19.84;100.00
54503;BME280;40411;50.090;21.954;2023-06-14T12:32:11;-19648.72;;;19.42;100.00
54503;BME280;40411;50.090;21.954;2023-06-14T12:34:37;-19662.84;;;20.00;100.00
54503;BME280;40411;50.090;21.954;2023-06-14T12:37:03;-19680.63;;;20.72;100.00
54503;BME280;40411;50.090;21.954;2023-06-14T12:39:32;-19684.41;;;20.87;99.57
54503;BME280;40411;50.090;21.954;2023-06-14T12:41:58;-19685.69;;;20.92;98.41
54503;BME280;40411;50.090;21.954;2023-06-14T12:44:24;-19690.47;;;21.12;98.59
54503;BME280;40411;50.090;21.954;2023-06-14T12:46:49;-19679.88;;;20.69;97.59
54503;BME280;40411;50.090;21.954;2023-06-14T12:49:17;-19692.09;;;21.18;96.55
54503;BME280;40411;50.090;21.954;2023-06-14T12:51:43;-19710.84;;;21.95;95.46